createdAt,value
2018-05-11T00:01:01.571Z,13.78
2018-05-11T00:03:31.415Z,14.13
2018-05-11T00:06:14.670Z,13.87
2018-05-11T00:08:43.308Z,13.99
2018-05-11T00:11:11.868Z,14.21
2018-05-11T00:13:41.723Z,14.08
2018-05-11T00:16:12.276Z,13.82
2018-05-11T00:18:41.256Z,13.49
2018-05-11T00:21:11.978Z,13.49
2018-05-11T00:23:41.759Z,13.50
2018-05-11T00:26:11.445Z,13.46
2018-05-11T00:28:43.079Z,13.39
2018-05-11T00:31:11.894Z,13.11
2018-05-11T00:33:41.855Z,12.81
2018-05-11T00:36:13.365Z,12.92
2018-05-11T00:39:01.119Z,12.74
2018-05-11T00:41:41.466Z,12.60
2018-05-11T00:44:12.105Z,13.07
2018-05-11T00:46:42.105Z,13.03
2018-05-11T00:52:12.813Z,12.73
2018-05-11T00:54:41.473Z,12.40
2018-05-11T00:57:11.717Z,12.53
2018-05-11T00:59:41.562Z,12.35
2018-05-11T01:02:12.087Z,12.22
2018-05-11T01:04:41.717Z,12.13
2018-05-11T01:07:12.652Z,12.49
2018-05-11T01:09:43.537Z,12.32
2018-05-11T01:12:12.870Z,12.01
2018-05-11T01:14:41.879Z,12.03
2018-05-11T01:17:11.370Z,12.37
2018-05-11T01:19:43.214Z,13.01
2018-05-11T01:22:11.769Z,13.18
2018-05-11T01:24:41.657Z,13.09
2018-05-11T01:27:11.262Z,12.46
2018-05-11T01:29:42.990Z,12.03
2018-05-11T01:32:11.592Z,11.80
2018-05-11T01:34:41.338Z,11.74
2018-05-11T01:37:11.221Z,11.41
2018-05-11T01:39:41.926Z,11.49
2018-05-11T01:42:12.364Z,11.83
2018-05-11T01:44:41.223Z,12.14
2018-05-11T01:47:12.978Z,11.31
2018-05-11T01:49:41.796Z,11.37
2018-05-11T01:52:11.467Z,11.31
2018-05-11T01:54:41.468Z,11.33
2018-05-11T01:57:16.624Z,11.42
2018-05-11T01:59:45.962Z,11.25
2018-05-11T02:02:16.344Z,11.79
2018-05-11T02:04:46.227Z,12.14
2018-05-11T02:07:16.187Z,11.97
2018-05-11T02:09:46.468Z,11.08
2018-05-11T02:12:16.468Z,11.48
2018-05-11T02:14:45.810Z,11.45
2018-05-11T02:17:15.671Z,11.21
2018-05-11T02:19:46.287Z,11.29
2018-05-11T02:22:15.952Z,11.99
2018-05-11T02:24:46.612Z,12.04
2018-05-11T02:27:16.396Z,11.75
2018-05-11T02:29:46.358Z,11.01
2018-05-11T02:32:16.105Z,10.88
2018-05-11T02:34:45.733Z,10.68
2018-05-11T02:37:16.560Z,10.64
2018-05-11T02:39:46.266Z,10.54
2018-05-11T02:42:16.115Z,10.43
2018-05-11T02:44:45.947Z,10.27
2018-05-11T02:47:17.660Z,10.71
2018-05-11T02:49:46.215Z,11.27
2018-05-11T02:52:15.705Z,11.14
2018-05-11T02:54:51.195Z,11.72
2018-05-11T02:57:27.011Z,11.48
2018-05-11T02:59:56.161Z,11.44
2018-05-11T03:02:26.481Z,10.56
2018-05-11T03:04:56.319Z,10.52
2018-05-11T03:07:26.223Z,10.21
2018-05-11T03:09:56.674Z,10.12
2018-05-11T03:12:26.035Z,10.36
2018-05-11T03:14:56.429Z,10.85
2018-05-11T03:17:26.699Z,11.39
2018-05-11T03:19:55.983Z,11.28
2018-05-11T03:22:26.472Z,10.21
2018-05-11T03:24:56.102Z,9.97
2018-05-11T03:27:26.581Z,10.08
2018-05-11T03:30:03.336Z,10.33
2018-05-11T03:32:45.717Z,11.10
2018-05-11T03:35:15.052Z,11.20
2018-05-11T03:37:43.672Z,10.04
2018-05-11T03:40:13.687Z,9.83
2018-05-11T03:42:43.491Z,9.81
2018-05-11T03:45:14.477Z,10.10
2018-05-11T03:47:44.437Z,10.10
2018-05-11T03:50:13.738Z,10.01
2018-05-11T03:52:43.795Z,9.88
2018-05-11T03:55:13.495Z,10.05
2018-05-11T03:57:45.329Z,10.81
2018-05-11T04:00:14.010Z,11.20
2018-05-11T04:03:01.865Z,11.16
2018-05-11T04:05:48.321Z,11.19
2018-05-11T04:11:12.667Z,11.11
2018-05-11T04:13:43.231Z,11.11
2018-05-11T04:16:14.215Z,10.65
2018-05-11T04:18:43.964Z,10.55
2018-05-11T04:21:13.992Z,10.65
2018-05-11T04:23:43.687Z,10.74
2018-05-11T04:26:13.559Z,11.04
2018-05-11T04:29:07.295Z,11.43
2018-05-11T04:34:15.008Z,10.69
2018-05-11T04:36:44.400Z,10.62
2018-05-11T04:39:14.104Z,10.67
2018-05-11T04:41:43.855Z,11.33
2018-05-11T04:44:15.740Z,11.66
2018-05-11T04:46:44.363Z,10.98
2018-05-11T04:49:14.655Z,11.00
2018-05-11T04:54:44.314Z,11.12
2018-05-11T04:57:16.091Z,11.26
2018-05-11T04:59:44.609Z,11.27
2018-05-11T05:02:15.693Z,11.38
2018-05-11T05:04:44.261Z,11.24
2018-05-11T05:07:15.767Z,11.34
2018-05-11T05:09:44.539Z,11.41
2018-05-11T05:12:14.085Z,11.37
2018-05-11T05:14:43.902Z,11.49
2018-05-11T05:17:14.235Z,11.78
2018-05-11T05:19:44.217Z,11.89
2018-05-11T05:22:13.891Z,12.02
2018-05-11T05:24:45.470Z,11.90
2018-05-11T05:27:15.280Z,12.07
2018-05-11T05:29:44.680Z,12.04
2018-05-11T05:32:14.006Z,11.53
2018-05-11T05:34:45.311Z,11.85
2018-05-11T05:37:14.841Z,11.93
2018-05-11T05:39:44.971Z,11.60
2018-05-11T05:42:14.484Z,11.70
2018-05-11T05:47:46.022Z,11.73
2018-05-11T05:50:14.670Z,11.54
2018-05-11T05:52:44.816Z,11.76
2018-05-11T05:55:14.576Z,11.56
2018-05-11T05:57:45.265Z,11.72
2018-05-11T06:00:15.037Z,11.58
2018-05-11T06:02:44.701Z,11.68
2018-05-11T06:05:15.090Z,11.92
2018-05-11T06:07:45.041Z,12.04
2018-05-11T06:10:14.717Z,11.95
2018-05-11T06:12:44.370Z,12.08
2018-05-11T06:15:16.208Z,12.12
2018-05-11T06:17:44.979Z,12.22
2018-05-11T06:20:14.759Z,12.45
2018-05-11T06:22:44.635Z,12.26
2018-05-11T06:25:15.772Z,12.18
2018-05-11T06:27:44.387Z,12.12
2018-05-11T06:30:14.757Z,12.02
2018-05-11T06:32:45.476Z,12.14
2018-05-11T06:35:15.117Z,11.96
2018-05-11T06:37:44.995Z,12.13
2018-05-11T06:40:14.921Z,12.05
2018-05-11T06:42:45.728Z,12.18
2018-05-11T06:45:14.766Z,12.13
2018-05-11T06:47:46.395Z,12.19
2018-05-11T06:50:15.005Z,12.20
2018-05-11T06:52:44.900Z,12.34
2018-05-11T06:55:17.800Z,12.35
2018-05-11T06:57:46.424Z,12.41
2018-05-11T07:00:15.080Z,12.47
2018-05-11T07:02:45.251Z,12.57
2018-05-11T07:05:14.975Z,12.46
2018-05-11T07:07:43.621Z,12.69
2018-05-11T07:10:13.111Z,12.73
2018-05-11T07:12:41.690Z,12.75
2018-05-11T07:15:10.364Z,12.48
2018-05-11T07:17:40.276Z,12.53
2018-05-11T07:20:09.951Z,12.67
2018-05-11T07:22:40.507Z,12.92
2018-05-11T07:25:10.354Z,12.76
2018-05-11T07:27:41.203Z,12.80
2018-05-11T07:30:09.752Z,12.93
2018-05-11T07:32:39.826Z,13.04
2018-05-11T07:35:11.826Z,13.06
2018-05-11T07:37:41.158Z,13.36
2018-05-11T07:40:09.681Z,13.35
2018-05-11T07:42:40.047Z,13.58
2018-05-11T07:45:09.896Z,13.68
2018-05-11T07:47:39.670Z,13.77
2018-05-11T07:50:11.565Z,13.75
2018-05-11T07:52:40.127Z,13.56
2018-05-11T07:55:10.107Z,13.63
2018-05-11T07:57:39.978Z,13.66
2018-05-11T08:00:09.840Z,13.80
2018-05-11T08:02:39.819Z,13.75
2018-05-11T08:05:11.643Z,13.70
2018-05-11T08:07:40.200Z,13.69
2018-05-11T08:10:10.663Z,13.76
2018-05-11T08:12:40.396Z,13.53
2018-05-11T08:15:10.783Z,13.72
2018-05-11T08:17:40.514Z,13.90
2018-05-11T08:20:10.136Z,14.10
2018-05-11T08:22:41.825Z,14.22
2018-05-11T08:25:11.265Z,14.31
2018-05-11T08:27:40.302Z,14.25
2018-05-11T08:30:10.885Z,14.24
2018-05-11T08:32:40.783Z,14.06
2018-05-11T08:35:10.608Z,14.08
2018-05-11T08:37:40.510Z,14.02
2018-05-11T08:40:10.072Z,13.89
2018-05-11T08:42:41.727Z,14.10
2018-05-11T08:45:10.259Z,14.19
2018-05-11T08:47:40.236Z,14.33
2018-05-11T08:50:10.867Z,14.57
2018-05-11T08:52:40.582Z,14.83
2018-05-11T08:55:10.202Z,14.79
2018-05-11T08:57:38.658Z,14.90
2018-05-11T09:00:07.942Z,15.31
2018-05-11T09:02:38.227Z,15.20
2018-05-11T09:05:10.404Z,15.20
2018-05-11T09:07:41.007Z,15.35
2018-05-11T09:10:10.460Z,15.61
2018-05-11T09:12:40.434Z,15.71
2018-05-11T09:15:11.967Z,15.42
2018-05-11T09:17:40.666Z,15.64
2018-05-11T09:20:10.906Z,15.56
2018-05-11T09:22:41.143Z,15.82
2018-05-11T09:25:11.118Z,16.03
2018-05-11T09:27:40.470Z,16.24
2018-05-11T09:30:11.402Z,16.32
2018-05-11T09:32:40.966Z,16.32
2018-05-11T09:35:10.722Z,16.72
2018-05-11T09:37:40.204Z,16.72
2018-05-11T09:40:10.529Z,16.85
2018-05-11T09:42:39.163Z,16.79
2018-05-11T09:45:07.858Z,16.86
2018-05-11T09:47:36.643Z,16.95
2018-05-11T09:50:05.399Z,17.16
2018-05-11T09:52:35.886Z,17.08
2018-05-11T09:55:04.449Z,16.79
2018-05-11T09:57:32.824Z,17.13
2018-05-11T10:00:01.383Z,17.16
2018-05-11T10:02:29.914Z,17.33
2018-05-11T10:04:58.379Z,17.43
2018-05-11T10:07:26.830Z,16.85
2018-05-11T10:09:55.401Z,16.70
2018-05-11T10:12:24.004Z,16.76
2018-05-11T10:14:52.568Z,16.54
2018-05-11T10:17:21.202Z,16.97
2018-05-11T10:19:50.455Z,17.19
2018-05-11T10:22:19.033Z,16.97
2018-05-11T10:24:47.474Z,17.35
2018-05-11T10:27:15.984Z,17.62
2018-05-11T10:29:44.454Z,17.73
2018-05-11T10:32:13.798Z,17.86
2018-05-11T10:34:42.326Z,17.98
2018-05-11T10:37:10.880Z,18.16
2018-05-11T10:39:40.476Z,18.11
2018-05-11T10:42:10.186Z,18.08
2018-05-11T10:44:38.726Z,18.24
2018-05-11T10:47:07.182Z,18.25
2018-05-11T10:49:36.491Z,18.41
2018-05-11T10:52:04.985Z,17.79
2018-05-11T10:54:33.465Z,17.77
2018-05-11T10:57:01.953Z,17.83
2018-05-11T10:59:30.473Z,17.96
2018-05-11T11:01:59.056Z,18.17
2018-05-11T11:04:27.866Z,18.27
2018-05-11T11:06:56.604Z,18.31
2018-05-11T11:09:25.190Z,18.44
2018-05-11T11:11:54.657Z,18.90
2018-05-11T11:14:23.188Z,19.29
2018-05-11T11:16:51.810Z,19.30
2018-05-11T11:19:20.475Z,19.02
2018-05-11T11:21:50.874Z,18.85
2018-05-11T11:24:20.401Z,19.26
2018-05-11T11:26:50.348Z,19.23
2018-05-11T11:29:21.807Z,19.29
2018-05-11T11:31:50.747Z,19.65
2018-05-11T11:34:20.207Z,20.08
2018-05-11T11:36:50.447Z,19.93
2018-05-11T11:39:19.973Z,19.26
2018-05-11T11:41:49.701Z,19.67
2018-05-11T11:44:20.617Z,20.15
2018-05-11T11:46:49.561Z,19.73
2018-05-11T11:49:20.012Z,19.62
2018-05-11T11:51:50.844Z,19.87
2018-05-11T11:54:22.179Z,20.23
2018-05-11T11:56:51.496Z,20.28
2018-05-11T11:59:20.049Z,19.41
2018-05-11T12:01:49.407Z,19.37
2018-05-11T12:04:20.464Z,18.87
2018-05-11T12:06:49.941Z,18.83
2018-05-11T12:09:19.620Z,19.11
2018-05-11T12:11:50.641Z,19.43
2018-05-11T12:14:22.199Z,19.05
2018-05-11T12:16:50.745Z,18.93
2018-05-11T12:19:20.331Z,18.92
2018-05-11T12:21:52.526Z,18.77
2018-05-11T12:24:21.883Z,19.21
2018-05-11T12:26:51.387Z,19.16
2018-05-11T12:29:20.716Z,19.48
2018-05-11T12:31:50.303Z,19.79
2018-05-11T12:34:19.095Z,20.04
2018-05-11T12:36:49.177Z,20.29
2018-05-11T12:39:20.281Z,20.58
2018-05-11T12:41:50.451Z,20.80
2018-05-11T12:44:20.118Z,20.89
2018-05-11T12:46:52.484Z,20.34
2018-05-11T12:49:21.776Z,19.92
2018-05-11T12:51:51.346Z,20.27
2018-05-11T12:54:24.911Z,20.61
2018-05-11T12:56:53.468Z,20.68
2018-05-11T12:59:22.025Z,20.72
2018-05-11T13:01:52.266Z,20.70
2018-05-11T13:04:20.825Z,20.78
2018-05-11T13:06:49.584Z,20.88
2018-05-11T13:09:19.432Z,20.62
2018-05-11T13:11:48.027Z,20.47
2018-05-11T13:14:16.544Z,20.08
2018-05-11T13:16:45.047Z,20.11
2018-05-11T13:19:13.531Z,20.43
2018-05-11T13:21:41.998Z,20.23
2018-05-11T13:24:17.035Z,20.37
2018-05-11T13:26:45.588Z,20.31
2018-05-11T13:29:14.245Z,20.08
2018-05-11T13:31:42.791Z,19.90
2018-05-11T13:34:11.265Z,20.07
2018-05-11T13:36:39.814Z,19.98
2018-05-11T13:39:10.300Z,19.65
2018-05-11T13:41:38.802Z,19.71
2018-05-11T13:44:07.240Z,20.00
2018-05-11T13:46:35.697Z,19.98
2018-05-11T13:49:04.116Z,20.04
2018-05-11T13:51:32.559Z,20.11
2018-05-11T13:54:01.006Z,20.41
2018-05-11T13:56:29.505Z,20.47
2018-05-11T13:58:57.940Z,20.35
2018-05-11T14:01:26.393Z,20.62
2018-05-11T14:03:55.700Z,20.31
2018-05-11T14:06:24.316Z,20.28
2018-05-11T14:08:53.697Z,20.20
2018-05-11T14:11:22.221Z,19.90
2018-05-11T14:13:50.820Z,20.11
2018-05-11T14:16:19.427Z,19.87
2018-05-11T14:18:48.842Z,19.91
2018-05-11T14:21:17.392Z,20.03
2018-05-11T14:23:47.389Z,20.16
2018-05-11T14:26:16.831Z,20.36
2018-05-11T14:28:46.314Z,20.15
2018-05-11T14:31:14.869Z,20.32
2018-05-11T14:33:44.485Z,20.26
2018-05-11T14:36:13.027Z,20.00
2018-05-11T14:38:41.546Z,19.56
2018-05-11T14:41:10.811Z,19.62
2018-05-11T14:43:40.953Z,20.05
2018-05-11T14:46:09.455Z,19.97
2018-05-11T14:48:38.711Z,19.87
2018-05-11T14:51:07.273Z,20.37
2018-05-11T14:53:37.788Z,20.60
2018-05-11T14:56:06.373Z,20.61
2018-05-11T14:58:34.943Z,20.51
2018-05-11T15:01:04.334Z,20.56
2018-05-11T15:03:33.046Z,20.43
2018-05-11T15:06:01.735Z,20.43
2018-05-11T15:08:30.284Z,20.68
2018-05-11T15:10:59.847Z,20.81
2018-05-11T15:13:28.566Z,20.44
2018-05-11T15:15:57.160Z,20.79
2018-05-11T15:18:25.771Z,20.79
2018-05-11T15:20:54.567Z,20.79
2018-05-11T15:23:23.539Z,20.44
2018-05-11T15:25:52.128Z,20.55
2018-05-11T15:28:20.833Z,20.24
2018-05-11T15:30:49.779Z,20.27
2018-05-11T15:33:18.539Z,19.77
2018-05-11T15:35:47.358Z,19.70
2018-05-11T15:38:19.727Z,20.05
2018-05-11T15:40:48.725Z,20.43
2018-05-11T15:43:18.949Z,20.63
2018-05-11T15:45:48.759Z,20.83
2018-05-11T15:48:18.905Z,20.95
2018-05-11T15:50:48.826Z,20.97
2018-05-11T15:53:18.212Z,20.84
2018-05-11T15:55:47.392Z,20.91
2018-05-11T15:58:17.328Z,20.75
2018-05-11T16:00:46.355Z,21.02
2018-05-11T16:03:14.861Z,20.94
2018-05-11T16:05:43.364Z,20.58
2018-05-11T16:08:11.948Z,20.59
2018-05-11T16:10:40.439Z,20.49
2018-05-11T16:13:09.154Z,20.46
2018-05-11T16:15:38.124Z,20.47
2018-05-11T16:18:06.887Z,20.70
2018-05-11T16:20:35.491Z,20.62
2018-05-11T16:23:03.963Z,20.47
2018-05-11T16:25:32.417Z,20.68
2018-05-11T16:28:00.859Z,20.89
2018-05-11T16:30:29.370Z,20.97
2018-05-11T16:32:57.875Z,21.02
2018-05-11T16:35:27.262Z,20.81
2018-05-11T16:37:55.837Z,20.91
2018-05-11T16:40:24.462Z,20.86
2018-05-11T16:42:53.093Z,20.84
2018-05-11T16:45:21.887Z,20.68
2018-05-11T16:47:50.525Z,21.28
2018-05-11T16:50:19.364Z,21.14
2018-05-11T16:52:49.495Z,21.14
2018-05-11T16:55:19.425Z,21.26
2018-05-11T16:57:48.968Z,21.41
2018-05-11T17:00:19.633Z,21.09
2018-05-11T17:02:49.108Z,20.83
2018-05-11T17:05:17.954Z,21.09
2018-05-11T17:07:47.552Z,20.49
2018-05-11T17:10:16.306Z,20.26
2018-05-11T17:12:44.773Z,20.35
2018-05-11T17:15:13.264Z,19.92
2018-05-11T17:17:41.743Z,19.92
2018-05-11T17:20:10.415Z,20.03
2018-05-11T17:22:39.076Z,20.02
2018-05-11T17:25:07.831Z,20.07
2018-05-11T17:27:36.489Z,19.73
2018-05-11T17:30:05.048Z,19.97
2018-05-11T17:32:33.727Z,20.25
2018-05-11T17:35:02.250Z,19.83
2018-05-11T17:37:37.898Z,19.66
2018-05-11T17:40:06.637Z,20.01
2018-05-11T17:42:40.170Z,19.62
2018-05-11T17:45:08.821Z,19.57
2018-05-11T17:47:38.575Z,19.39
2018-05-11T17:50:07.224Z,19.43
2018-05-11T17:52:39.959Z,19.59
2018-05-11T17:55:08.623Z,19.59
2018-05-11T17:57:47.847Z,19.28
2018-05-11T18:00:19.515Z,19.44
2018-05-11T18:02:51.227Z,19.40
2018-05-11T18:05:20.024Z,19.31
2018-05-11T18:07:50.569Z,19.34
2018-05-11T18:10:19.835Z,19.28
2018-05-11T18:12:50.532Z,19.21
2018-05-11T18:15:22.561Z,18.84
2018-05-11T19:17:48.079Z,18.45
2018-05-11T19:20:17.052Z,18.80
2018-05-11T19:22:54.629Z,18.97
2018-05-11T19:25:26.860Z,18.31
2018-05-11T19:27:55.486Z,18.83
2018-05-11T19:30:23.957Z,19.03
2018-05-11T19:32:52.426Z,19.10
2018-05-11T19:36:03.589Z,18.94
2018-05-11T19:38:33.874Z,19.13
2018-05-11T19:41:02.414Z,18.76
2018-05-11T19:43:30.921Z,18.21
2018-05-11T19:46:02.031Z,18.02
2018-05-11T19:48:30.587Z,18.37
2018-05-11T19:51:11.373Z,18.47
2018-05-11T19:53:40.032Z,18.30
2018-05-11T19:56:12.426Z,18.18
2018-05-11T19:58:41.279Z,18.01
2018-05-11T20:01:09.949Z,18.14
2018-05-11T20:03:38.651Z,17.85
2018-05-11T20:06:07.281Z,17.73
2018-05-11T20:08:36.125Z,17.60
2018-05-11T20:11:06.076Z,17.66
2018-05-11T20:13:35.159Z,17.74
2018-05-11T20:16:04.449Z,17.69
2018-05-11T20:18:33.895Z,17.73
2018-05-11T20:21:02.454Z,17.86
2018-05-11T20:23:31.148Z,18.00
2018-05-11T20:25:59.732Z,17.93
2018-05-11T20:28:28.203Z,17.92
2018-05-11T20:30:57.562Z,18.08
2018-05-11T20:33:26.141Z,18.06
2018-05-11T20:35:55.195Z,18.07
2018-05-11T20:38:24.238Z,17.92
2018-05-11T20:40:53.290Z,17.45
2018-05-11T20:43:28.571Z,17.43
2018-05-11T20:45:57.545Z,17.61
2018-05-11T20:48:26.516Z,17.50
2018-05-11T20:50:55.076Z,17.39
2018-05-11T20:53:23.535Z,17.51
2018-05-11T20:55:52.073Z,17.57
2018-05-11T20:58:20.532Z,17.34
2018-05-11T21:00:49.772Z,17.38
2018-05-11T21:03:18.206Z,17.40
2018-05-11T21:05:46.699Z,17.60
2018-05-11T21:08:15.139Z,17.33
2018-05-11T21:10:43.722Z,17.42
2018-05-11T21:13:12.350Z,17.54
2018-05-11T21:15:41.019Z,17.41
2018-05-11T21:18:09.710Z,17.34
2018-05-11T21:20:38.553Z,17.33
2018-05-11T21:23:07.423Z,17.26
2018-05-11T21:25:36.916Z,17.58
2018-05-11T21:28:05.516Z,17.41
2018-05-11T21:30:33.954Z,17.41
2018-05-11T21:33:03.059Z,17.33
2018-05-11T21:35:33.022Z,17.30
2018-05-11T21:38:01.889Z,17.34
2018-05-11T21:40:30.718Z,17.00
2018-05-11T21:42:59.835Z,17.19
2018-05-11T21:45:28.359Z,17.40
2018-05-11T21:47:57.610Z,17.03
2018-05-11T21:50:26.055Z,16.75
2018-05-11T21:52:54.527Z,16.66
2018-05-11T21:55:23.075Z,16.60
2018-05-11T21:57:51.657Z,17.31
2018-05-11T22:00:20.100Z,17.21
2018-05-11T22:02:48.595Z,17.16
2018-05-11T22:05:17.080Z,17.11
2018-05-11T22:07:47.034Z,17.30
2018-05-11T22:10:15.545Z,17.22
2018-05-11T22:12:43.983Z,16.93
2018-05-11T22:15:12.458Z,17.18
2018-05-11T22:17:40.880Z,17.26
2018-05-11T22:20:09.317Z,17.42
2018-05-11T22:22:37.743Z,17.45
2018-05-11T22:25:06.234Z,17.00
2018-05-11T22:27:34.952Z,16.62
2018-05-11T22:30:04.463Z,16.68
2018-05-11T22:32:33.355Z,16.81
2018-05-11T22:35:02.095Z,16.92
2018-05-11T22:37:30.787Z,17.23
2018-05-11T22:39:59.344Z,17.50
2018-05-11T22:42:27.801Z,17.30
2018-05-11T22:44:56.250Z,16.80
2018-05-11T22:47:24.777Z,17.28
2018-05-11T22:49:53.294Z,17.31
2018-05-11T22:52:21.875Z,17.09
2018-05-11T22:54:51.192Z,17.12
2018-05-11T22:57:20.440Z,16.43
2018-05-11T22:59:48.890Z,16.52
2018-05-11T23:02:17.324Z,16.79
2018-05-11T23:04:52.206Z,16.79
2018-05-11T23:07:20.750Z,16.81
2018-05-11T23:09:49.209Z,16.87
2018-05-11T23:12:18.455Z,16.80
2018-05-11T23:14:47.103Z,16.87
2018-05-11T23:17:15.778Z,16.39
2018-05-11T23:19:44.619Z,16.40
2018-05-11T23:22:14.012Z,16.77
2018-05-11T23:24:42.459Z,17.08
2018-05-11T23:27:10.899Z,17.26
2018-05-11T23:29:39.363Z,17.19
2018-05-11T23:32:07.858Z,17.00
2018-05-11T23:34:36.372Z,16.78
2018-05-11T23:37:05.021Z,16.44
2018-05-11T23:39:33.487Z,16.45
2018-05-11T23:42:01.963Z,16.33
2018-05-11T23:44:30.431Z,16.20
2018-05-11T23:46:58.985Z,16.36
2018-05-11T23:49:29.384Z,16.79
2018-05-11T23:51:58.700Z,16.97
2018-05-11T23:54:27.256Z,17.15
2018-05-11T23:56:55.707Z,17.22
2018-05-11T23:59:24.135Z,17.28
